Time;durP1;ratioP1;P1;durP2;ratioP2;P2;SDS_P1;SDS_P2;PMS_P1;PMS_P2;Temp;Humidity;BMP_temperature;BMP_pressure;BME280_temperature;BME280_humidity;BME280_pressure;Samples;Min_cycle;Max_cycle;Signal;HPM_P1;HPM_P2
2022/11/21 00:00:50;;;;;;;2.65;1.38;;;3.50;91.30;;;;;;6333665;22;20060;-76
2022/11/21 00:03:16;;;;;;;3.25;1.50;;;3.40;91.30;;;;;;6336827;22;19999;-76
2022/11/21 00:05:44;;;;;;;2.45;1.40;;;3.40;91.30;;;;;;6336511;22;20072;-76
2022/11/21 00:08:11;;;;;;;2.40;1.27;;;3.40;91.30;;;;;;6336843;22;19995;-76
2022/11/21 00:10:39;;;;;;;3.30;1.80;;;3.40;91.30;;;;;;6331109;22;20007;-76
2022/11/21 00:13:05;;;;;;;3.03;1.55;;;3.40;91.30;;;;;;6333412;22;20006;-76
2022/11/21 00:15:32;;;;;;;3.03;1.40;;;3.40;91.60;;;;;;6336207;22;20028;-76
2022/11/21 00:18:01;;;;;;;3.22;1.50;;;3.40;91.30;;;;;;6336870;22;20365;-76
2022/11/21 00:20:27;;;;;;;1.98;1.10;;;3.40;91.30;;;;;;6332138;22;20007;-76
2022/11/21 00:22:53;;;;;;;2.53;1.23;;;3.40;91.30;;;;;;6337137;22;20021;-76
2022/11/21 00:25:18;;;;;;;2.53;1.40;;;3.40;91.30;;;;;;6336412;22;20042;-76
2022/11/21 00:27:44;;;;;;;2.50;1.27;;;3.40;91.30;;;;;;6332232;22;20003;-76
2022/11/21 00:30:11;;;;;;;2.70;1.33;;;3.40;91.30;;;;;;6330417;22;19998;-76
2022/11/21 00:32:37;;;;;;;2.22;1.15;;;3.40;91.30;;;;;;6333811;22;19999;-76
2022/11/21 00:35:03;;;;;;;1.48;1.10;;;3.40;91.30;;;;;;6336456;22;20056;-76
2022/11/21 00:37:31;;;;;;;2.50;1.50;;;3.50;91.30;;;;;;6334752;22;20003;-76
2022/11/21 00:39:56;;;;;;;3.53;1.60;;;3.40;91.30;;;;;;6336831;22;20120;-76
2022/11/21 00:42:22;;;;;;;3.28;1.25;;;3.40;91.30;;;;;;6329563;22;20034;-76
2022/11/21 00:44:47;;;;;;;2.08;1.10;;;3.40;91.30;;;;;;6336444;22;20330;-76
2022/11/21 00:47:13;;;;;;;2.47;1.30;;;3.50;91.30;;;;;;6336987;22;20001;-76
2022/11/21 00:49:38;;;;;;;3.05;1.42;;;3.40;91.30;;;;;;6336695;22;20003;-76
2022/11/21 00:52:04;;;;;;;2.22;1.30;;;3.40;91.30;;;;;;6336974;22;20002;-76
2022/11/21 00:54:30;;;;;;;2.10;1.10;;;3.60;91.30;;;;;;6307642;22;20061;-76
2022/11/21 00:56:55;;;;;;;2.25;1.08;;;3.40;91.20;;;;;;6333373;22;20007;-76
2022/11/21 00:59:21;;;;;;;1.90;0.98;;;3.50;91.30;;;;;;6336848;22;20003;-77
2022/11/21 01:01:46;;;;;;;2.03;1.17;;;3.40;91.30;;;;;;6336819;22;20014;-76
2022/11/21 01:04:12;;;;;;;2.00;1.17;;;3.50;91.30;;;;;;6336678;22;20072;-76
2022/11/21 01:06:37;;;;;;;1.48;1.00;;;3.50;91.30;;;;;;6336307;22;20037;-76
2022/11/21 01:09:03;;;;;;;2.40;1.13;;;3.50;91.30;;;;;;6332423;22;20002;-77
2022/11/21 01:11:29;;;;;;;2.25;1.05;;;3.50;91.30;;;;;;6336206;22;20002;-76
2022/11/21 01:13:55;;;;;;;1.65;1.00;;;3.50;91.30;;;;;;6333255;22;20180;-77
2022/11/21 01:16:24;;;;;;;1.90;1.10;;;3.50;91.30;;;;;;6336718;22;20074;-76
2022/11/21 01:18:50;;;;;;;1.85;1.15;;;3.40;91.20;;;;;;6332552;22;20006;-76
2022/11/21 01:21:21;;;;;;;2.63;1.45;;;3.50;91.30;;;;;;6333649;22;20366;-76
2022/11/21 01:23:47;;;;;;;2.40;1.20;;;3.50;91.30;;;;;;6336830;22;20116;-76
2022/11/21 01:26:15;;;;;;;2.47;1.13;;;3.60;91.30;;;;;;6333759;22;20426;-76
2022/11/21 01:28:41;;;;;;;2.33;1.42;;;3.50;91.20;;;;;;6336359;22;20026;-76
2022/11/21 01:31:10;;;;;;;2.28;1.10;;;3.50;91.20;;;;;;6336215;22;20442;-76
2022/11/21 01:33:36;;;;;;;2.70;1.60;;;3.50;91.20;;;;;;6336803;22;20081;-76
2022/11/21 01:36:22;;;;;;;3.40;1.45;;;3.50;91.20;;;;;;6333951;22;19999;-76
2022/11/21 01:38:51;;;;;;;3.65;1.65;;;3.50;91.30;;;;;;6334165;22;19999;-77
2022/11/21 01:41:23;;;;;;;1.83;1.10;;;3.40;91.20;;;;;;6336178;22;19995;-76
2022/11/21 01:43:49;;;;;;;2.58;1.48;;;3.50;91.30;;;;;;6336179;22;20479;-77
2022/11/21 01:46:16;;;;;;;4.55;2.08;;;3.50;91.30;;;;;;6333892;22;20002;-76
2022/11/21 01:49:12;;;;;;;2.80;1.60;;;3.40;91.30;;;;;;6332908;22;20011;-76
2022/11/21 01:52:02;;;;;;;3.00;1.60;;;3.50;91.30;;;;;;6331992;22;20002;-76
2022/11/21 01:54:31;;;;;;;3.25;1.63;;;3.40;91.30;;;;;;6336557;22;19999;-76
2022/11/21 01:57:08;;;;;;;2.00;1.10;;;3.40;91.30;;;;;;6331818;22;20003;-76
2022/11/21 01:59:45;;;;;;;2.42;1.25;;;3.40;91.40;;;;;;6334078;22;20003;-76
2022/11/21 02:02:13;;;;;;;2.55;1.33;;;3.40;91.40;;;;;;6332082;22;20017;-77
2022/11/21 02:04:42;;;;;;;2.65;1.42;;;3.40;91.40;;;;;;6336668;22;20011;-76
2022/11/21 02:07:09;;;;;;;2.80;1.40;;;3.40;91.30;;;;;;6336494;22;20469;-76
2022/11/21 02:09:38;;;;;;;2.17;1.10;;;3.40;91.30;;;;;;6307563;22;19999;-76
2022/11/21 02:12:09;;;;;;;3.00;1.45;;;3.40;91.30;;;;;;6336583;22;20007;-77
2022/11/21 02:14:36;;;;;;;2.22;1.30;;;3.50;91.40;;;;;;6334243;22;20007;-76
2022/11/21 02:17:05;;;;;;;2.95;1.52;;;3.50;91.40;;;;;;6336610;22;20091;-76
2022/11/21 02:20:01;;;;;;;1.77;0.98;;;3.40;91.30;;;;;;6332732;22;20437;-76
2022/11/21 02:22:51;;;;;;;3.20;1.70;;;3.40;91.30;;;;;;6336585;22;20014;-76
2022/11/21 02:25:20;;;;;;;2.10;1.20;;;3.40;91.40;;;;;;6336248;22;20068;-76
2022/11/21 02:27:48;;;;;;;2.90;1.40;;;3.30;91.30;;;;;;6336195;22;20005;-76
2022/11/21 02:30:15;;;;;;;2.30;1.30;;;3.40;91.30;;;;;;6332123;22;20010;-76
2022/11/21 02:32:46;;;;;;;2.78;1.33;;;3.40;91.30;;;;;;6336263;22;19999;-76
2022/11/21 02:35:15;;;;;;;2.65;1.20;;;3.40;91.30;;;;;;6331693;22;20086;-76
2022/11/21 02:37:41;;;;;;;1.45;0.90;;;3.40;91.30;;;;;;6333612;22;20037;-76
2022/11/21 02:40:10;;;;;;;2.00;1.10;;;3.40;91.30;;;;;;6336309;22;20045;-76
2022/11/21 02:42:44;;;;;;;3.03;1.73;;;3.40;91.40;;;;;;6336613;22;20034;-76
2022/11/21 02:45:27;;;;;;;2.40;1.30;;;3.50;91.40;;;;;;6334022;22;20007;-76
2022/11/21 02:47:55;;;;;;;2.25;1.23;;;3.40;91.30;;;;;;6336345;22;19998;-76
2022/11/21 02:50:26;;;;;;;2.97;1.50;;;3.50;91.40;;;;;;6334107;22;20327;-76
2022/11/21 02:52:52;;;;;;;2.60;1.50;;;3.50;91.30;;;;;;6336056;22;20036;-76
2022/11/21 02:55:17;;;;;;;2.60;1.15;;;3.40;91.30;;;;;;6332015;22;20271;-76
2022/11/21 02:57:43;;;;;;;2.83;1.50;;;3.40;91.30;;;;;;6336007;22;20007;-76
2022/11/21 03:00:10;;;;;;;2.90;1.45;;;3.30;91.30;;;;;;6307558;22;20082;-76
2022/11/21 03:02:36;;;;;;;2.28;1.30;;;3.40;91.30;;;;;;6329254;22;20453;-76
2022/11/21 03:05:05;;;;;;;2.95;1.50;;;3.30;91.40;;;;;;6331928;22;20006;-76
2022/11/21 03:07:31;;;;;;;4.03;1.70;;;3.30;91.40;;;;;;6336348;22;20002;-76
2022/11/21 03:09:57;;;;;;;2.60;1.27;;;3.30;91.40;;;;;;6336643;22;20296;-76
2022/11/21 03:12:22;;;;;;;2.58;1.48;;;3.30;91.40;;;;;;6335866;22;20019;-76
2022/11/21 03:14:48;;;;;;;3.70;1.67;;;3.20;91.40;;;;;;6336736;22;20056;-76
2022/11/21 03:17:14;;;;;;;3.17;1.40;;;3.20;91.40;;;;;;6336489;22;20007;-76
2022/11/21 03:19:39;;;;;;;4.18;1.70;;;3.30;91.40;;;;;;6330299;22;19999;-76
2022/11/21 03:22:06;;;;;;;2.22;1.13;;;3.20;91.40;;;;;;6335698;22;20006;-76
2022/11/21 03:24:31;;;;;;;2.47;1.38;;;3.20;91.40;;;;;;6305595;22;20014;-76
2022/11/21 03:26:57;;;;;;;3.00;1.42;;;3.20;91.50;;;;;;6336093;22;20442;-76
2022/11/21 03:29:22;;;;;;;2.95;1.40;;;3.20;91.50;;;;;;6336193;22;19995;-76
2022/11/21 03:31:48;;;;;;;1.45;0.98;;;3.20;91.50;;;;;;6307763;22;19995;-76
2022/11/21 03:34:13;;;;;;;3.30;1.88;;;3.20;91.40;;;;;;6335617;22;19999;-77
2022/11/21 03:36:39;;;;;;;2.20;1.20;;;3.30;91.40;;;;;;6335605;22;19994;-76
2022/11/21 03:39:05;;;;;;;2.47;1.48;;;3.20;91.40;;;;;;6335722;22;20003;-76
2022/11/21 03:41:31;;;;;;;3.55;1.60;;;3.30;91.40;;;;;;6333216;22;20010;-76
2022/11/21 03:43:58;;;;;;;3.45;1.42;;;3.20;91.40;;;;;;6335558;22;20320;-77
2022/11/21 03:46:24;;;;;;;3.08;1.52;;;3.30;91.40;;;;;;6336480;22;20077;-76
2022/11/21 03:48:49;;;;;;;3.17;1.52;;;3.30;91.40;;;;;;6335445;22;20037;-76
2022/11/21 03:51:15;;;;;;;2.30;1.05;;;3.20;91.60;;;;;;6334828;22;20010;-76
2022/11/21 03:53:41;;;;;;;2.78;1.30;;;3.20;91.50;;;;;;6333976;22;20327;-76
2022/11/21 03:56:06;;;;;;;3.85;1.73;;;3.10;91.50;;;;;;6337259;22;20002;-76
2022/11/21 03:58:32;;;;;;;2.83;1.40;;;3.20;91.50;;;;;;6336832;22;20014;-76
2022/11/21 04:00:57;;;;;;;2.75;1.45;;;3.20;91.50;;;;;;6337365;22;20479;-76
2022/11/21 04:03:23;;;;;;;2.47;1.33;;;3.20;91.40;;;;;;6336997;22;19995;-76
2022/11/21 04:05:48;;;;;;;3.92;2.00;;;3.10;91.40;;;;;;6336633;22;20014;-76
2022/11/21 04:08:14;;;;;;;2.92;1.45;;;3.20;91.50;;;;;;6336551;22;20033;-76
2022/11/21 04:10:47;;;;;;;3.42;1.83;;;3.10;91.50;;;;;;6329857;22;20060;-76
2022/11/21 04:13:13;;;;;;;2.92;1.60;;;3.20;91.60;;;;;;6337101;22;20003;-76
2022/11/21 04:15:41;;;;;;;3.90;1.70;;;3.10;91.60;;;;;;6337188;22;20006;-76
2022/11/21 04:18:06;;;;;;;2.63;1.50;;;3.10;91.60;;;;;;6332410;22;20063;-76
2022/11/21 04:20:32;;;;;;;3.13;1.50;;;3.00;91.50;;;;;;6337127;22;20003;-76
2022/11/21 04:22:58;;;;;;;2.38;1.30;;;3.10;91.50;;;;;;6329453;22;20007;-76
2022/11/21 04:25:23;;;;;;;2.88;1.48;;;3.10;91.50;;;;;;6333355;22;20292;-76
2022/11/21 04:27:49;;;;;;;2.40;1.17;;;3.10;91.50;;;;;;6337471;22;19999;-76
2022/11/21 04:30:15;;;;;;;2.45;1.33;;;3.10;91.50;;;;;;6337637;22;19999;-77
2022/11/21 04:32:40;;;;;;;3.13;1.23;;;3.20;91.50;;;;;;6337316;22;19999;-76
2022/11/21 04:35:06;;;;;;;2.40;1.17;;;3.10;91.40;;;;;;6334949;22;20007;-76
2022/11/21 04:37:32;;;;;;;2.30;1.08;;;3.20;91.40;;;;;;6334971;22;20007;-76
2022/11/21 04:39:57;;;;;;;2.28;1.30;;;3.20;91.50;;;;;;6337366;22;20385;-76
2022/11/21 04:42:23;;;;;;;2.25;1.13;;;3.20;91.40;;;;;;6337635;22;20018;-76
2022/11/21 04:44:49;;;;;;;2.63;1.38;;;3.20;91.40;;;;;;6337351;22;19998;-76
2022/11/21 04:47:14;;;;;;;1.75;1.00;;;3.20;91.40;;;;;;6337230;22;20031;-76
2022/11/21 04:49:40;;;;;;;3.30;1.30;;;3.20;91.40;;;;;;6306825;22;20048;-76
2022/11/21 04:52:05;;;;;;;2.45;1.30;;;3.10;91.40;;;;;;6282284;22;20003;-76
2022/11/21 04:54:31;;;;;;;1.95;1.00;;;3.20;91.40;;;;;;6337518;22;19999;-76
2022/11/21 04:56:57;;;;;;;2.75;1.25;;;3.20;91.40;;;;;;6337860;22;20076;-76
2022/11/21 04:59:22;;;;;;;3.10;1.38;;;3.20;91.40;;;;;;6337090;22;20015;-76
2022/11/21 05:01:48;;;;;;;3.17;1.50;;;3.20;91.40;;;;;;6337489;22;20009;-76
2022/11/21 05:04:14;;;;;;;4.18;1.92;;;3.20;91.40;;;;;;6326785;22;20006;-76
2022/11/21 05:06:39;;;;;;;3.72;1.60;;;3.20;91.40;;;;;;6337745;22;20030;-76
2022/11/21 05:09:05;;;;;;;2.58;1.48;;;3.20;91.50;;;;;;6338058;22;20002;-76
2022/11/21 05:14:11;;;;;;;2.53;1.40;;;3.30;91.40;;;;;;6338022;22;20018;-77
2022/11/21 05:16:37;;;;;;;2.38;1.33;;;3.20;91.40;;;;;;6335564;22;20014;-77
2022/11/21 05:19:02;;;;;;;2.63;1.13;;;3.30;91.40;;;;;;6337935;22;20026;-76
2022/11/21 05:21:28;;;;;;;2.20;1.00;;;3.40;91.50;;;;;;6306978;22;20063;-76
2022/11/21 05:23:53;;;;;;;3.33;1.70;;;3.30;91.40;;;;;;6337670;22;20026;-76
2022/11/21 05:26:19;;;;;;;3.83;1.20;;;3.30;91.40;;;;;;6333539;22;20082;-76
2022/11/21 05:28:46;;;;;;;4.15;1.95;;;3.30;91.40;;;;;;6333237;22;20076;-76
2022/11/21 05:31:12;;;;;;;2.95;1.08;;;3.20;91.40;;;;;;6337524;22;20013;-76
2022/11/21 05:33:37;;;;;;;2.17;1.10;;;3.30;91.40;;;;;;6337618;22;20566;-76
2022/11/21 05:36:03;;;;;;;3.88;1.50;;;3.20;91.40;;;;;;6337982;22;20001;-76
2022/11/21 05:38:29;;;;;;;3.55;1.50;;;3.20;91.70;;;;;;6335109;22;20030;-76
2022/11/21 05:40:54;;;;;;;2.63;1.52;;;3.30;91.50;;;;;;6336961;22;20004;-76
2022/11/21 05:46:03;;;;;;;2.80;1.33;;;3.20;91.40;;;;;;6337481;22;20063;-76
2022/11/21 05:48:28;;;;;;;2.65;1.42;;;3.30;91.40;;;;;;6335065;22;20476;-76
2022/11/21 05:50:54;;;;;;;5.13;1.63;;;3.30;91.40;;;;;;6337406;22;20487;-76
2022/11/21 05:53:20;;;;;;;2.90;1.40;;;3.30;91.40;;;;;;6333321;22;19998;-76
2022/11/21 05:55:45;;;;;;;3.67;1.52;;;3.30;91.40;;;;;;6332368;22;20034;-76
2022/11/21 05:58:11;;;;;;;3.40;1.50;;;3.30;91.40;;;;;;6336798;22;20007;-76
2022/11/21 06:00:38;;;;;;;4.82;1.80;;;3.30;91.40;;;;;;6333193;22;20013;-76
2022/11/21 06:05:44;;;;;;;1.87;1.03;;;3.30;91.40;;;;;;6337020;22;20707;-76
2022/11/21 06:08:10;;;;;;;4.15;1.77;;;3.40;91.40;;;;;;6336843;22;19995;-76
2022/11/21 06:10:35;;;;;;;3.30;1.50;;;3.30;91.40;;;;;;6336954;22;20005;-76
2022/11/21 06:13:01;;;;;;;3.50;1.52;;;3.30;91.40;;;;;;6336301;22;20010;-77
2022/11/21 06:15:28;;;;;;;4.60;1.50;;;3.40;91.40;;;;;;6337029;22;20034;-76
2022/11/21 06:17:53;;;;;;;3.03;1.10;;;3.40;91.40;;;;;;6337162;22;20276;-76
2022/11/21 06:20:19;;;;;;;2.33;1.15;;;3.40;91.40;;;;;;6337521;22;20005;-76
2022/11/21 06:22:45;;;;;;;3.15;1.58;;;3.40;91.40;;;;;;6334511;22;20090;-76
2022/11/21 06:25:10;;;;;;;3.38;1.35;;;3.30;91.40;;;;;;6330526;22;20003;-76
2022/11/21 06:27:36;;;;;;;5.43;1.95;;;3.40;91.50;;;;;;6336789;22;20053;-76
2022/11/21 06:30:02;;;;;;;3.58;1.70;;;3.30;91.40;;;;;;6336390;22;20038;-76
2022/11/21 06:32:27;;;;;;;3.97;1.67;;;3.40;91.40;;;;;;6337676;22;20002;-76
2022/11/21 06:34:53;;;;;;;2.92;1.58;;;3.30;91.40;;;;;;6332780;22;20003;-76
2022/11/21 06:37:19;;;;;;;2.75;1.23;;;3.30;91.40;;;;;;6337017;22;20084;-76
2022/11/21 06:39:44;;;;;;;2.42;1.05;;;3.30;91.50;;;;;;6336620;22;20034;-76
2022/11/21 06:42:10;;;;;;;3.03;1.40;;;3.30;91.40;;;;;;6336568;22;20003;-76
2022/11/21 06:44:35;;;;;;;4.07;1.67;;;3.30;91.50;;;;;;6337073;22;20424;-77
2022/11/21 06:47:01;;;;;;;2.78;1.52;;;3.40;91.50;;;;;;6334493;22;20082;-76
2022/11/21 06:49:27;;;;;;;2.97;1.20;;;3.40;91.50;;;;;;6337168;22;20449;-76
2022/11/21 06:51:52;;;;;;;3.97;1.80;;;3.40;91.50;;;;;;6334558;22;20002;-76
2022/11/21 06:54:18;;;;;;;3.85;1.60;;;3.50;91.50;;;;;;6338152;22;20003;-76
2022/11/21 06:56:43;;;;;;;2.55;1.30;;;3.40;91.50;;;;;;6333617;22;20381;-76
2022/11/21 06:59:09;;;;;;;2.38;1.23;;;3.40;91.50;;;;;;6336149;22;20006;-76
2022/11/21 07:01:34;;;;;;;2.38;1.17;;;3.40;91.40;;;;;;6337669;22;20018;-76
2022/11/21 07:04:00;;;;;;;4.53;1.83;;;3.40;91.50;;;;;;6332626;22;20014;-77
2022/11/21 07:06:26;;;;;;;6.38;2.10;;;3.40;91.50;;;;;;6337259;22;20026;-76
2022/11/21 07:08:53;;;;;;;2.42;1.20;;;3.40;91.50;;;;;;6334414;22;19995;-76
2022/11/21 07:11:19;;;;;;;3.67;1.33;;;3.40;91.50;;;;;;6336943;22;20082;-77
2022/11/21 07:13:44;;;;;;;3.38;1.30;;;3.40;91.50;;;;;;6333218;22;20368;-76
2022/11/21 07:16:13;;;;;;;1.80;0.90;;;3.40;91.50;;;;;;6336985;22;20030;-77
2022/11/21 07:18:39;;;;;;;2.67;1.30;;;3.40;91.50;;;;;;6333993;22;20435;-77
2022/11/21 07:21:05;;;;;;;3.35;1.40;;;3.40;91.50;;;;;;6334072;22;20067;-76
2022/11/21 07:23:32;;;;;;;2.17;1.25;;;3.60;91.60;;;;;;6337231;22;20346;-76
2022/11/21 07:26:00;;;;;;;3.90;1.77;;;3.50;91.50;;;;;;6333647;22;20007;-76
2022/11/21 07:28:28;;;;;;;2.50;1.25;;;3.50;91.50;;;;;;6335687;22;20027;-76
2022/11/21 07:30:55;;;;;;;3.88;1.77;;;3.50;91.50;;;;;;6335276;22;20384;-77
2022/11/21 07:33:21;;;;;;;4.30;1.67;;;3.50;91.70;;;;;;6337118;22;20002;-76
2022/11/21 07:35:47;;;;;;;3.97;1.80;;;3.60;91.50;;;;;;6337760;22;20081;-76
2022/11/21 07:38:12;;;;;;;2.85;1.42;;;3.50;91.40;;;;;;6335488;22;19998;-76
2022/11/21 07:40:38;;;;;;;2.35;1.17;;;3.60;91.40;;;;;;6309166;22;20045;-76
2022/11/21 07:43:05;;;;;;;2.00;1.10;;;3.60;91.50;;;;;;6311323;22;19999;-78
2022/11/21 07:45:31;;;;;;;3.03;1.40;;;3.70;91.50;;;;;;6339771;22;20060;-77
2022/11/21 07:47:59;;;;;;;2.67;1.35;;;3.70;91.50;;;;;;6309960;22;20014;-76
2022/11/21 07:50:25;;;;;;;3.08;1.33;;;3.60;91.50;;;;;;6307412;22;20034;-75
2022/11/21 07:52:53;;;;;;;1.70;1.00;;;3.60;91.40;;;;;;6344577;22;20014;-76
2022/11/21 07:55:19;;;;;;;2.13;1.10;;;3.60;91.40;;;;;;6339654;22;20014;-77
2022/11/21 07:57:55;;;;;;;2.03;1.13;;;3.60;91.50;;;;;;6278621;22;20027;-76
2022/11/21 08:00:21;;;;;;;1.23;0.77;;;3.60;91.50;;;;;;6281058;22;20018;-76
2022/11/21 08:02:47;;;;;;;2.92;1.40;;;3.60;91.50;;;;;;6251582;22;20042;-78
2022/11/21 08:05:13;;;;;;;2.53;1.30;;;3.70;91.50;;;;;;6225086;22;20011;-76
2022/11/21 08:07:38;;;;;;;3.05;1.40;;;3.70;91.50;;;;;;6282430;22;20013;-76
2022/11/21 08:10:08;;;;;;;2.03;1.10;;;3.70;91.50;;;;;;6303844;22;20035;-77
2022/11/21 08:12:33;;;;;;;1.73;1.08;;;3.70;91.40;;;;;;6242780;22;20071;-77
2022/11/21 08:15:05;;;;;;;2.55;1.20;;;3.70;91.40;;;;;;6219530;23;20008;-78
2022/11/21 08:17:45;;;;;;;2.47;1.20;;;3.80;91.40;;;;;;6194759;23;20004;-78
2022/11/21 08:20:16;;;;;;;2.05;1.20;;;3.80;91.40;;;;;;6170385;23;20007;-78
2022/11/21 08:22:42;;;;;;;1.87;1.30;;;3.70;91.40;;;;;;6168670;23;20045;-78
2022/11/21 08:25:10;;;;;;;2.10;1.00;;;3.80;91.70;;;;;;6168936;23;20036;-77
2022/11/21 08:27:39;;;;;;;2.47;1.08;;;3.80;91.40;;;;;;6218989;22;20012;-77
2022/11/21 08:30:15;;;;;;;1.92;0.90;;;3.80;91.40;;;;;;6248135;22;20552;-77
2022/11/21 08:36:55;;;;;;;1.65;1.00;;;3.90;91.40;;;;;;6146544;23;20029;-75
2022/11/21 08:39:47;;;;;;;4.05;1.52;;;3.80;91.40;;;;;;6150039;23;20013;-76
2022/11/21 08:42:48;;;;;;;;;;;3.90;91.40;;;;;;6091481;23;20435;-76
2022/11/21 08:49:35;;;;;;;1.85;0.85;;;3.90;91.40;;;;;;6031795;23;20348;-76
2022/11/21 08:55:56;;;;;;;1.75;0.80;;;4.00;91.40;;;;;;5981604;23;20035;-77
2022/11/21 08:58:33;;;;;;;1.70;0.77;;;4.00;91.40;;;;;;5950742;24;20017;-76
2022/11/21 09:01:19;;;;;;;2.60;1.10;;;4.00;91.40;;;;;;5951498;23;20105;-77
2022/11/21 09:04:28;;;;;;;3.70;1.33;;;4.00;91.40;;;;;;5920036;24;20054;-77
2022/11/21 09:11:15;;;;;;;1.80;1.00;;;4.00;91.30;;;;;;6035767;23;19963;-77
2022/11/21 09:13:43;;;;;;;2.05;1.15;;;4.00;91.20;;;;;;5948044;24;20012;-78
2022/11/21 09:18:52;;;;;;;1.83;1.00;;;4.20;91.20;;;;;;5919831;24;20073;-76
2022/11/21 09:21:18;;;;;;;1.80;0.82;;;4.40;91.30;;;;;;5924372;24;20088;-76
2022/11/21 09:23:45;;;;;;;2.90;1.20;;;4.20;91.30;;;;;;5902053;24;20018;-75
2022/11/21 09:26:11;;;;;;;3.08;1.40;;;4.30;91.30;;;;;;5896317;24;20435;-76
2022/11/21 09:28:37;;;;;;;2.25;1.13;;;4.30;91.30;;;;;;5895833;24;20084;-76
2022/11/21 09:31:06;;;;;;;4.57;1.52;;;4.30;91.30;;;;;;5895880;24;20436;-76
2022/11/21 09:33:32;;;;;;;2.97;1.40;;;4.40;91.30;;;;;;5880178;23;20038;-77
2022/11/21 09:36:22;;;;;;;3.33;1.58;;;4.40;91.30;;;;;;5958230;23;20016;-77
2022/11/21 09:39:01;;;;;;;2.65;1.25;;;4.40;91.30;;;;;;5978818;23;20015;-77
2022/11/21 09:42:11;;;;;;;3.70;1.52;;;4.50;91.30;;;;;;5956672;23;20020;-77
2022/11/21 09:45:20;;;;;;;2.95;1.50;;;4.50;91.30;;;;;;5957723;23;20032;-78
2022/11/21 09:52:18;;;;;;;1.42;0.82;;;4.60;91.30;;;;;;5976412;23;20016;-77
2022/11/21 09:55:14;;;;;;;2.22;1.10;;;4.90;91.30;;;;;;5895221;24;20029;-78
2022/11/21 09:58:02;;;;;;;4.53;1.55;;;4.80;91.30;;;;;;5924005;24;20021;-78
2022/11/21 10:05:18;;;;;;;2.92;1.45;;;4.90;91.20;;;;;;5863713;24;20037;-79
2022/11/21 10:11:20;;;;;;;2.00;1.00;;;4.90;91.20;;;;;;5594319;25;20098;-75
2022/11/21 10:42:59;;;;;;;0.93;0.65;;;5.20;91.10;;;;;;5172215;27;20144;-78
2022/11/21 10:45:27;;;;;;;3.05;1.13;;;5.30;91.00;;;;;;5172418;27;20043;-78
2022/11/21 10:48:11;;;;;;;2.83;1.20;;;5.40;91.10;;;;;;5151264;27;20039;-79
2022/11/21 10:51:36;;;;;;;3.10;1.35;;;5.20;91.00;;;;;;5135663;27;20041;-78
2022/11/21 11:01:18;;;;;;;1.85;1.17;;;5.50;91.10;;;;;;4898128;29;20428;-78
2022/11/21 11:03:47;;;;;;;1.83;1.00;;;5.50;91.10;;;;;;4894315;29;20087;-76
2022/11/21 11:06:13;;;;;;;1.65;0.85;;;5.50;91.10;;;;;;4929149;29;20056;-78
2022/11/21 11:08:54;;;;;;;2.50;1.20;;;5.60;91.20;;;;;;4931481;29;20055;-78
2022/11/21 11:11:28;;;;;;;2.10;1.20;;;5.70;91.20;;;;;;4928777;29;20048;-78
2022/11/21 11:14:31;;;;;;;2.20;1.17;;;5.70;91.20;;;;;;4915744;29;20043;-79
2022/11/21 11:17:00;;;;;;;2.47;1.10;;;5.70;91.10;;;;;;4892896;29;20041;-78
2022/11/21 11:19:29;;;;;;;2.28;1.20;;;5.80;91.10;;;;;;4870545;29;20045;-79
2022/11/21 11:22:31;;;;;;;3.25;1.40;;;6.00;91.20;;;;;;4856732;29;20048;-79
2022/11/21 11:29:07;;;;;;;2.78;1.17;;;6.10;91.00;;;;;;4839686;29;20433;-79
2022/11/21 11:39:45;;;;;;;3.80;1.48;;;6.30;91.00;;;;;;4720284;30;20060;-80
2022/11/21 11:48:48;;;;;;;2.45;1.35;;;6.50;91.00;;;;;;4859999;29;20049;-78
2022/11/21 11:51:23;;;;;;;3.35;1.40;;;6.60;90.90;;;;;;4878746;29;20076;-79
2022/11/21 11:54:20;;;;;;;3.53;1.40;;;6.70;90.90;;;;;;4896913;29;20067;-78
2022/11/21 11:56:58;;;;;;;3.33;1.70;;;6.80;90.90;;;;;;4930026;29;20043;-78
2022/11/21 11:59:39;;;;;;;2.03;1.15;;;6.80;90.90;;;;;;4952141;28;20575;-78
2022/11/21 12:02:30;;;;;;;3.67;1.50;;;6.90;90.90;;;;;;4965421;28;20050;-78
2022/11/21 12:05:06;;;;;;;3.28;1.40;;;6.90;90.90;;;;;;5006084;28;20052;-78
2022/11/21 12:07:37;;;;;;;2.58;1.30;;;7.00;90.90;;;;;;5035521;28;20127;-78
2022/11/21 12:10:25;;;;;;;2.42;1.42;;;7.00;90.90;;;;;;5052336;28;20041;-80
2022/11/21 12:13:15;;;;;;;2.55;1.30;;;7.20;90.90;;;;;;5100513;28;20504;-80
2022/11/21 12:15:47;;;;;;;2.42;1.40;;;7.30;90.90;;;;;;5106227;28;20040;-79
2022/11/21 12:18:53;;;;;;;2.22;1.30;;;7.40;90.80;;;;;;5113407;28;20035;-77
2022/11/21 12:21:19;;;;;;;2.08;1.23;;;7.50;90.80;;;;;;5132936;28;20046;-78
2022/11/21 12:24:19;;;;;;;3.03;1.25;;;7.50;90.80;;;;;;5134363;28;20445;-77
2022/11/21 12:27:21;;;;;;;1.80;1.20;;;7.60;90.80;;;;;;5116494;28;20529;-74
2022/11/21 12:30:21;;;;;;;1.50;1.13;;;7.60;90.80;;;;;;5111831;28;20059;-76
2022/11/21 12:33:02;;;;;;;2.05;1.05;;;7.70;90.80;;;;;;5112255;28;20130;-78
2022/11/21 12:39:27;;;;;;;1.70;1.30;;;7.90;90.80;;;;;;5070946;28;20109;-76
2022/11/21 12:55:27;;;;;;;2.08;0.90;;;8.10;90.80;;;;;;4922149;29;20055;-78
2022/11/21 12:58:11;;;;;;;1.23;0.90;;;8.10;90.80;;;;;;4901407;29;20044;-79
2022/11/21 13:00:56;;;;;;;2.15;1.15;;;8.10;90.80;;;;;;4888034;29;20154;-75
2022/11/21 13:04:09;;;;;;;1.70;1.10;;;8.10;90.80;;;;;;4902985;29;20067;-77
2022/11/21 13:07:32;;;;;;;3.53;1.40;;;8.00;90.90;;;;;;4862898;29;20048;-78
2022/11/21 13:10:25;;;;;;;0.85;0.75;;;8.00;91.00;;;;;;4876363;29;20041;-76
2022/11/21 13:13:38;;;;;;;2.13;1.10;;;8.00;91.00;;;;;;4816686;29;20046;-77
2022/11/21 13:16:35;;;;;;;1.13;0.88;;;8.00;91.10;;;;;;4790003;29;20055;-75
2022/11/21 13:19:44;;;;;;;1.35;1.00;;;8.10;91.10;;;;;;4799433;30;20043;-76
2022/11/21 13:23:06;;;;;;;1.08;0.88;;;8.00;91.10;;;;;;4794859;30;20058;-77
2022/11/21 13:26:33;;;;;;;0.95;0.80;;;8.00;91.10;;;;;;4851361;29;20135;-75
2022/11/21 13:28:52;;;;;;;1.15;0.85;;;8.00;91.10;;;;;;4885251;29;20149;-76
2022/11/21 13:31:33;;;;;;;1.08;0.85;;;8.00;91.10;;;;;;4884179;29;20564;-76
2022/11/21 13:33:59;;;;;;;0.80;0.70;;;8.00;91.20;;;;;;4908076;29;20041;-75
2022/11/21 13:36:37;;;;;;;1.73;0.80;;;8.00;91.10;;;;;;4926743;29;20043;-76
2022/11/21 13:39:25;;;;;;;1.20;0.93;;;8.10;91.10;;;;;;4970454;29;20039;-75
2022/11/21 13:44:41;;;;;;;1.35;0.98;;;8.10;91.10;;;;;;4976785;28;20051;-76
2022/11/21 13:47:29;;;;;;;1.38;0.90;;;8.10;91.10;;;;;;5060218;28;20032;-76
2022/11/21 13:50:18;;;;;;;1.40;0.85;;;8.10;91.20;;;;;;5085365;28;20075;-75
2022/11/21 13:53:15;;;;;;;1.77;0.60;;;8.20;91.10;;;;;;5078372;28;20179;-75
2022/11/21 13:57:13;;;;;;;0.65;0.65;;;8.20;91.10;;;;;;4997724;28;20137;-75
2022/11/21 13:59:36;;;;;;;0.82;0.70;;;8.20;91.10;;;;;;4886500;29;20053;-74
2022/11/21 14:02:53;;;;;;;1.83;0.98;;;8.20;91.10;;;;;;4983309;28;20046;-74
2022/11/21 14:06:05;;;;;;;1.63;0.90;;;8.30;91.10;;;;;;4997190;28;20042;-76
2022/11/21 14:08:31;;;;;;;;;;;8.20;91.10;;;;;;5003605;28;20049;-75
2022/11/21 14:11:17;;;;;;;0.63;0.60;;;8.20;91.30;;;;;;4975293;28;19918;-76
2022/11/21 14:18:04;;;;;;;1.00;0.73;;;8.10;91.10;;;;;;4945129;29;20067;-76
2022/11/21 14:20:59;;;;;;;0.82;0.75;;;8.00;91.10;;;;;;4888966;29;20144;-75
2022/11/21 14:23:42;;;;;;;0.88;0.70;;;8.00;91.20;;;;;;4898688;29;20881;-75
2022/11/21 14:26:26;;;;;;;0.60;0.60;;;7.90;91.20;;;;;;4898705;29;20044;-77
2022/11/21 14:29:34;;;;;;;0.80;0.70;;;7.80;91.20;;;;;;4912510;29;20500;-76
2022/11/21 14:32:00;;;;;;;1.23;0.85;;;7.80;91.30;;;;;;4855871;29;20049;-75
2022/11/21 14:34:31;;;;;;;1.05;0.82;;;7.80;91.30;;;;;;4842060;29;20060;-77
2022/11/21 14:37:06;;;;;;;0.47;0.47;;;7.70;91.40;;;;;;4856974;29;20498;-77
2022/11/21 14:39:41;;;;;;;0.82;0.60;;;7.70;91.40;;;;;;4860039;29;20045;-76
2022/11/21 14:42:16;;;;;;;0.90;0.70;;;7.70;91.50;;;;;;4888873;29;20052;-76
2022/11/21 14:52:26;;;;;;;0.98;0.80;;;7.50;91.50;;;;;;4874563;29;20489;-79
2022/11/21 14:54:55;;;;;;;0.85;0.60;;;7.50;91.60;;;;;;4896487;29;20041;-77
2022/11/21 14:58:02;;;;;;;1.00;0.77;;;7.40;91.60;;;;;;4930131;29;20126;-77
2022/11/21 15:00:29;;;;;;;1.92;1.00;;;7.60;91.60;;;;;;4902089;29;20071;-76
2022/11/21 15:02:57;;;;;;;1.80;0.80;;;7.30;91.60;;;;;;4923412;29;20079;-75
2022/11/21 15:05:32;;;;;;;0.70;0.63;;;7.30;91.60;;;;;;4897235;29;20054;-76
2022/11/21 15:08:01;;;;;;;1.70;0.73;;;7.30;91.60;;;;;;4897808;29;20048;-74
2022/11/21 15:10:42;;;;;;;1.52;0.90;;;7.30;91.60;;;;;;4912711;29;20048;-76
2022/11/21 15:13:35;;;;;;;1.00;0.80;;;7.30;91.90;;;;;;4913491;29;20044;-77
2022/11/21 15:16:05;;;;;;;1.25;0.75;;;7.20;91.70;;;;;;4932432;29;20046;-77
2022/11/21 15:18:43;;;;;;;1.05;0.70;;;7.10;91.70;;;;;;4909966;29;20040;-74
2022/11/21 15:21:15;;;;;;;0.63;0.60;;;7.10;91.70;;;;;;4946420;29;20040;-74
2022/11/21 15:23:42;;;;;;;0.70;0.63;;;7.10;91.70;;;;;;5004089;28;20186;-75
2022/11/21 15:26:34;;;;;;;2.38;0.90;;;7.10;91.70;;;;;;4993662;28;20046;-76
2022/11/21 15:29:00;;;;;;;1.25;0.88;;;7.10;91.70;;;;;;5030560;28;20044;-75
2022/11/21 15:31:26;;;;;;;1.00;0.70;;;7.00;91.70;;;;;;5024938;28;20037;-75
2022/11/21 15:33:57;;;;;;;1.38;0.93;;;7.10;91.80;;;;;;5038879;28;20040;-75